Weather History for Williams, AZ

Change the Weather History Date:

Saturday, September 21, 2013

  Actual Average (KFLG) Record (KFLG)
Temperature  
Mean Temperature 62 °F 56 °F  
Max Temperature 73 °F 71 °F 84 °F (1943)
Min Temperature 50 °F 40 °F 23 °F (1955)
Degree Days  
Heating Degree Days 4 9  
Month to date heating degree days 129  
Since 1 July heating degree days 217  
Cooling Degree Days 0 0  
Month to date cooling degree days 0  
Year to date cooling degree days 114  
Growing Degree Days 12 (Base 50)    
Moisture  
Dew Point 45 °F    
Average Humidity 52    
Maximum Humidity 82    
Minimum Humidity 37    
Precipitation  
Precipitation 0.00 in 0.07 in 0.81 in (1990)
Month to date precipitation 1.75  
Year to date precipitation 15.94  
Snow  
Snow 0.00 in 0.00 in 0.00 in (2002)
Month to date snowfall 0.0  
Since 1 July snowfall 0.0  
Snow Depth -    
Sea Level Pressure  
Sea Level Pressure 30.17 in    
Wind  
Wind Speed 11 mph (South)    
Max Wind Speed 22 mph    
Max Gust Speed 29 mph    
Visibility 10 miles    
Events      
T = Trace of Precipitation, MM = Missing Value Source: NWS Daily Summary

Daily Weather History Graph

Daily Weather History Graph

Search for Another Location

Airport:

Trip Planner

Search our weather history database for the weather conditions in past years. The results will help you decide how hot, cold, wet, or windy it might be!

Date:

Astronomy

Sep. 21, 2013 Rise Set
Actual Time 6:16 AM MST 6:26 PM MST
Civil Twilight 5:50 AM MST 6:51 PM MST
Nautical Twilight 5:21 AM MST 7:21 PM MST
Astronomical Twilight 4:51 AM MST 7:51 PM MST
Moon 7:47 PM MST (9/21) 8:31 AM MST (9/21)
Length of Visible Light 13h 01m
Length of Day
12h 10m
Waning Gibbous, 94% of the Moon is Illuminated
Sep 21
Waning Gibbous
Sep 26
Last Quarter
Oct 4
New
Oct 11
First Quarter
Oct 18
Full

Hourly Weather History & Observations

Time (MST) Temp. Dew Point Humidity Pressure Visibility Wind Dir Wind Speed Gust Speed Precip Events Conditions
12:15 AM 53.6 °F 42.8 °F 67% 30.23 in 10.0 mi SSW 6.9 mph - N/A   Clear
12:35 AM 57.2 °F 42.8 °F 59% 30.23 in 10.0 mi SSW 8.1 mph - N/A   Clear
12:55 AM 57.2 °F 44.6 °F 63% 30.23 in 10.0 mi South 8.1 mph - N/A   Clear
1:15 AM 59.0 °F 44.6 °F 59% 30.23 in 10.0 mi SSW 6.9 mph - N/A   Clear
1:35 AM 53.6 °F 42.8 °F 67% 30.23 in 10.0 mi South 6.9 mph - N/A   Clear
1:55 AM 53.6 °F 42.8 °F 67% 30.23 in 10.0 mi South 6.9 mph - N/A   Clear
2:15 AM 53.6 °F 42.8 °F 67% 30.23 in 10.0 mi South 8.1 mph - N/A   Clear
2:35 AM 53.6 °F 44.6 °F 72% 30.23 in 10.0 mi South 6.9 mph - N/A   Clear
2:55 AM 50.0 °F 44.6 °F 82% 30.22 in 10.0 mi South 6.9 mph - N/A   Clear
3:15 AM 50.0 °F 42.8 °F 76% 30.22 in 10.0 mi SSE 8.1 mph - N/A   Clear
3:35 AM 53.6 °F 44.6 °F 72% 30.22 in 10.0 mi SSE 8.1 mph - N/A   Clear
3:55 AM 53.6 °F 44.6 °F 72% 30.22 in 10.0 mi SSE 10.4 mph - N/A   Clear
4:15 AM 55.4 °F 44.6 °F 67% 30.22 in 10.0 mi SSE 9.2 mph - N/A   Clear
4:35 AM 55.4 °F 42.8 °F 63% 30.22 in 10.0 mi SSE 8.1 mph - N/A   Clear
4:55 AM 55.4 °F 42.8 °F 63% 30.22 in 10.0 mi South 11.5 mph - N/A   Clear
5:15 AM 55.4 °F 42.8 °F 63% 30.22 in 10.0 mi South 9.2 mph - N/A   Clear
5:35 AM 53.6 °F 42.8 °F 67% 30.22 in 10.0 mi SSE 9.2 mph - N/A   Clear
5:55 AM 53.6 °F 44.6 °F 72% 30.23 in 10.0 mi SE 6.9 mph - N/A   Clear
6:15 AM 53.6 °F 44.6 °F 72% 30.22 in 10.0 mi SE 9.2 mph - N/A   Clear
6:35 AM 53.6 °F 44.6 °F 72% 30.23 in 10.0 mi SSE 10.4 mph - N/A   Clear
6:55 AM 55.4 °F 44.6 °F 67% 30.23 in 10.0 mi South 12.7 mph - N/A   Clear
7:15 AM 59.0 °F 46.4 °F 63% 30.24 in 10.0 mi SSE 12.7 mph - N/A   Clear
7:35 AM 59.0 °F 46.4 °F 63% 30.24 in 10.0 mi SSE 15.0 mph 20.7 mph N/A   Clear
7:55 AM 60.8 °F 46.4 °F 59% 30.24 in 10.0 mi SSE 15.0 mph - N/A   Clear
8:15 AM 62.6 °F 48.2 °F 59% 30.24 in 10.0 mi SSE 11.5 mph - N/A   Clear
8:35 AM 64.4 °F 46.4 °F 52% 30.24 in 10.0 mi SSE 12.7 mph 17.3 mph N/A   Clear
8:55 AM 66.2 °F 46.4 °F 49% 30.24 in 10.0 mi SSE 16.1 mph - N/A   Clear
9:15 AM 66.2 °F 46.4 °F 49% 30.24 in 10.0 mi South 13.8 mph 19.6 mph N/A   Clear
9:35 AM 68.0 °F 46.4 °F 46% 30.24 in 10.0 mi SSE 16.1 mph 20.7 mph N/A   Clear
9:55 AM 68.0 °F 46.4 °F 46% 30.24 in 10.0 mi South 12.7 mph 17.3 mph N/A   Clear
10:15 AM 68.0 °F 46.4 °F 46% 30.24 in 10.0 mi South 13.8 mph 19.6 mph N/A   Clear
10:35 AM 69.8 °F 48.2 °F 46% 30.24 in 10.0 mi SSE 17.3 mph 20.7 mph N/A   Clear
10:55 AM 69.8 °F 46.4 °F 43% 30.24 in 10.0 mi SSE 18.4 mph 23.0 mph N/A   Clear
11:15 AM 69.8 °F 48.2 °F 46% 30.23 in 10.0 mi SSE 16.1 mph 19.6 mph N/A   Partly Cloudy
11:35 AM 69.8 °F 48.2 °F 46% 30.23 in 10.0 mi South 11.5 mph - N/A   Partly Cloudy
11:55 AM 71.6 °F 46.4 °F 41% 30.22 in 10.0 mi SSW 16.1 mph 21.9 mph N/A   Clear
12:15 PM 71.6 °F 48.2 °F 43% 30.22 in 10.0 mi South 11.5 mph 21.9 mph N/A   Clear
12:35 PM 71.6 °F 48.2 °F 43% 30.21 in 10.0 mi South 20.7 mph 27.6 mph N/A   Partly Cloudy
12:55 PM 71.6 °F 46.4 °F 41% 30.20 in 10.0 mi SSW 13.8 mph 19.6 mph N/A   Partly Cloudy
1:15 PM 69.8 °F 48.2 °F 46% 30.19 in 10.0 mi South 12.7 mph 23.0 mph N/A   Mostly Cloudy
1:35 PM 71.6 °F 48.2 °F 43% 30.18 in 10.0 mi South 15.0 mph 19.6 mph N/A   Scattered Clouds
1:55 PM 69.8 °F 48.2 °F 46% 30.17 in 10.0 mi South 16.1 mph 21.9 mph N/A   Mostly Cloudy
2:15 PM 71.6 °F 50.0 °F 46% 30.16 in 10.0 mi South 13.8 mph 21.9 mph N/A   Mostly Cloudy
2:35 PM 71.6 °F 48.2 °F 43% 30.15 in 10.0 mi South 21.9 mph 27.6 mph N/A   Mostly Cloudy
2:55 PM 73.4 °F 46.4 °F 38% 30.14 in 10.0 mi SSW 18.4 mph 25.3 mph N/A   Scattered Clouds
3:15 PM 71.6 °F 46.4 °F 41% 30.14 in 10.0 mi South 19.6 mph 28.8 mph N/A   Scattered Clouds
3:35 PM 71.6 °F 48.2 °F 43% 30.13 in 10.0 mi South 20.7 mph 28.8 mph N/A   Scattered Clouds
3:55 PM 68.0 °F 46.4 °F 46% 30.13 in 10.0 mi South 12.7 mph 21.9 mph N/A   Scattered Clouds
4:15 PM 68.0 °F 46.4 °F 46% 30.12 in 10.0 mi South 11.5 mph 17.3 mph N/A   Mostly Cloudy
4:35 PM 71.6 °F 44.6 °F 38% 30.12 in 10.0 mi SSW 17.3 mph 24.2 mph N/A   Scattered Clouds
4:55 PM 68.0 °F 42.8 °F 40% 30.11 in 10.0 mi SSW 13.8 mph 19.6 mph N/A   Partly Cloudy
5:15 PM 69.8 °F 42.8 °F 38% 30.11 in 10.0 mi South 17.3 mph 23.0 mph N/A   Clear
5:35 PM 68.0 °F 44.6 °F 43% 30.10 in 10.0 mi South 11.5 mph 20.7 mph N/A   Scattered Clouds
5:55 PM 66.2 °F 42.8 °F 43% 30.10 in 10.0 mi SW 11.5 mph 19.6 mph N/A   Scattered Clouds
6:15 PM 68.0 °F 41.0 °F 37% 30.10 in 10.0 mi SSW 15.0 mph 24.2 mph N/A   Partly Cloudy
6:35 PM 66.2 °F 41.0 °F 40% 30.09 in 10.0 mi South 10.4 mph - N/A   Clear
6:55 PM 64.4 °F 41.0 °F 42% 30.09 in 10.0 mi South 10.4 mph - N/A   Clear
7:15 PM 62.6 °F 41.0 °F 45% 30.09 in 10.0 mi South 10.4 mph - N/A   Clear
7:35 PM 64.4 °F 41.0 °F 42% 30.08 in 10.0 mi South 8.1 mph 16.1 mph N/A   Partly Cloudy
7:55 PM 64.4 °F 41.0 °F 42% 30.08 in 10.0 mi South 11.5 mph 16.1 mph N/A   Partly Cloudy
8:15 PM 64.4 °F 42.8 °F 45% 30.08 in 10.0 mi South 13.8 mph 19.6 mph N/A   Clear
8:35 PM 62.6 °F 44.6 °F 52% 30.08 in 10.0 mi South 10.4 mph 18.4 mph N/A   Unknown
8:55 PM 62.6 °F 44.6 °F 52% 30.08 in 10.0 mi SSW 11.5 mph 18.4 mph N/A   Clear
9:15 PM 62.6 °F 44.6 °F 52% 30.08 in 10.0 mi South 10.4 mph - N/A   Clear
9:35 PM 62.6 °F 42.8 °F 48% 30.07 in 10.0 mi South 11.5 mph - N/A   Clear
9:55 PM 62.6 °F 41.0 °F 45% 30.06 in 10.0 mi South 17.3 mph 24.2 mph N/A   Clear
10:15 PM 62.6 °F 41.0 °F 45% 30.06 in 10.0 mi South 11.5 mph 20.7 mph N/A   Clear
10:35 PM 62.6 °F 41.0 °F 45% 30.06 in 10.0 mi South 13.8 mph - N/A   Clear
10:55 PM 62.6 °F 41.0 °F 45% 30.05 in 10.0 mi SSW 13.8 mph 23.0 mph N/A   Clear
11:15 PM 62.6 °F 41.0 °F 45% 30.05 in 10.0 mi SSW 4.6 mph - N/A   Clear
11:35 PM 62.6 °F 42.8 °F 48% 30.05 in 10.0 mi SSW 10.4 mph 20.7 mph N/A   Clear
11:55 PM 62.6 °F 44.6 °F 52% 30.04 in 10.0 mi South 13.8 mph 19.6 mph N/A   Clear